sensor_id;sensor_type;location;lat;lon;timestamp;P1;durP1;ratioP1;P2;durP2;ratioP2
72920;SDS011;61064;51.654;5.476;2024-02-04T00:01:18;17.80;;;8.37;;
72920;SDS011;61064;51.654;5.476;2024-02-04T00:03:44;14.25;;;6.68;;
72920;SDS011;61064;51.654;5.476;2024-02-04T00:06:09;12.70;;;6.10;;
72920;SDS011;61064;51.654;5.476;2024-02-04T00:08:35;12.63;;;5.95;;
72920;SDS011;61064;51.654;5.476;2024-02-04T00:11:01;14.07;;;5.90;;
72920;SDS011;61064;51.654;5.476;2024-02-04T00:13:29;11.73;;;5.63;;
72920;SDS011;61064;51.654;5.476;2024-02-04T00:15:55;11.67;;;5.30;;
72920;SDS011;61064;51.654;5.476;2024-02-04T00:18:23;12.57;;;5.50;;
72920;SDS011;61064;51.654;5.476;2024-02-04T00:20:48;10.73;;;5.07;;
72920;SDS011;61064;51.654;5.476;2024-02-04T00:23:13;11.87;;;5.50;;
72920;SDS011;61064;51.654;5.476;2024-02-04T00:25:39;13.13;;;5.30;;
72920;SDS011;61064;51.654;5.476;2024-02-04T00:28:06;9.88;;;4.88;;
72920;SDS011;61064;51.654;5.476;2024-02-04T00:30:31;11.87;;;5.70;;
72920;SDS011;61064;51.654;5.476;2024-02-04T00:32:57;15.10;;;6.90;;
72920;SDS011;61064;51.654;5.476;2024-02-04T00:35:27;14.57;;;7.03;;
72920;SDS011;61064;51.654;5.476;2024-02-04T00:37:53;15.47;;;6.87;;
72920;SDS011;61064;51.654;5.476;2024-02-04T00:40:18;13.67;;;6.60;;
72920;SDS011;61064;51.654;5.476;2024-02-04T00:42:44;15.80;;;6.70;;
72920;SDS011;61064;51.654;5.476;2024-02-04T00:45:09;13.87;;;6.50;;
72920;SDS011;61064;51.654;5.476;2024-02-04T00:47:34;14.00;;;6.73;;
72920;SDS011;61064;51.654;5.476;2024-02-04T00:50:00;16.63;;;7.40;;
72920;SDS011;61064;51.654;5.476;2024-02-04T00:52:25;17.70;;;6.50;;
72920;SDS011;61064;51.654;5.476;2024-02-04T00:54:51;15.80;;;7.03;;
72920;SDS011;61064;51.654;5.476;2024-02-04T00:57:16;17.30;;;7.60;;
72920;SDS011;61064;51.654;5.476;2024-02-04T00:59:44;19.70;;;8.10;;
72920;SDS011;61064;51.654;5.476;2024-02-04T01:02:10;18.27;;;7.68;;
72920;SDS011;61064;51.654;5.476;2024-02-04T01:04:35;19.40;;;8.27;;
72920;SDS011;61064;51.654;5.476;2024-02-04T01:07:00;19.03;;;7.43;;
72920;SDS011;61064;51.654;5.476;2024-02-04T01:09:26;17.93;;;7.43;;
72920;SDS011;61064;51.654;5.476;2024-02-04T01:11:52;16.50;;;7.95;;
72920;SDS011;61064;51.654;5.476;2024-02-04T01:14:18;13.57;;;6.63;;
72920;SDS011;61064;51.654;5.476;2024-02-04T01:16:43;20.35;;;8.32;;
72920;SDS011;61064;51.654;5.476;2024-02-04T01:19:09;20.97;;;8.47;;
72920;SDS011;61064;51.654;5.476;2024-02-04T01:21:34;23.70;;;8.70;;
72920;SDS011;61064;51.654;5.476;2024-02-04T01:23:59;25.57;;;9.60;;
72920;SDS011;61064;51.654;5.476;2024-02-04T01:26:25;23.07;;;8.23;;
72920;SDS011;61064;51.654;5.476;2024-02-04T01:28:50;19.67;;;8.43;;
72920;SDS011;61064;51.654;5.476;2024-02-04T01:31:16;25.67;;;8.60;;
72920;SDS011;61064;51.654;5.476;2024-02-04T01:33:41;21.17;;;8.30;;
72920;SDS011;61064;51.654;5.476;2024-02-04T01:36:06;22.53;;;8.37;;
72920;SDS011;61064;51.654;5.476;2024-02-04T01:38:32;21.87;;;8.00;;
72920;SDS011;61064;51.654;5.476;2024-02-04T01:40:57;22.48;;;8.20;;
72920;SDS011;61064;51.654;5.476;2024-02-04T01:43:23;19.63;;;8.50;;
72920;SDS011;61064;51.654;5.476;2024-02-04T01:45:49;20.50;;;7.73;;
72920;SDS011;61064;51.654;5.476;2024-02-04T01:48:18;23.50;;;7.72;;
72920;SDS011;61064;51.654;5.476;2024-02-04T01:50:45;30.02;;;8.25;;
72920;SDS011;61064;51.654;5.476;2024-02-04T01:53:12;19.15;;;7.82;;
72920;SDS011;61064;51.654;5.476;2024-02-04T01:55:39;27.75;;;8.27;;
72920;SDS011;61064;51.654;5.476;2024-02-04T01:58:05;23.00;;;8.00;;
72920;SDS011;61064;51.654;5.476;2024-02-04T02:00:35;26.25;;;8.23;;
72920;SDS011;61064;51.654;5.476;2024-02-04T02:03:00;23.23;;;8.20;;
72920;SDS011;61064;51.654;5.476;2024-02-04T02:05:33;21.33;;;7.90;;
72920;SDS011;61064;51.654;5.476;2024-02-04T02:07:58;20.48;;;7.72;;
72920;SDS011;61064;51.654;5.476;2024-02-04T02:10:24;23.45;;;7.22;;
72920;SDS011;61064;51.654;5.476;2024-02-04T02:12:58;24.43;;;7.30;;
72920;SDS011;61064;51.654;5.476;2024-02-04T02:15:32;23.10;;;7.97;;
72920;SDS011;61064;51.654;5.476;2024-02-04T02:18:04;25.17;;;7.97;;
72920;SDS011;61064;51.654;5.476;2024-02-04T02:20:45;22.53;;;6.47;;
72920;SDS011;61064;51.654;5.476;2024-02-04T02:23:29;27.77;;;7.60;;
72920;SDS011;61064;51.654;5.476;2024-02-04T02:26:14;19.35;;;7.38;;
72920;SDS011;61064;51.654;5.476;2024-02-04T02:28:41;28.75;;;8.30;;
72920;SDS011;61064;51.654;5.476;2024-02-04T02:31:06;23.57;;;7.77;;
72920;SDS011;61064;51.654;5.476;2024-02-04T02:33:32;19.57;;;6.97;;
72920;SDS011;61064;51.654;5.476;2024-02-04T02:36:00;22.90;;;7.43;;
72920;SDS011;61064;51.654;5.476;2024-02-04T02:38:53;24.25;;;7.10;;
72920;SDS011;61064;51.654;5.476;2024-02-04T02:41:35;19.27;;;7.27;;
72920;SDS011;61064;51.654;5.476;2024-02-04T02:44:01;21.08;;;6.93;;
72920;SDS011;61064;51.654;5.476;2024-02-04T02:46:28;25.08;;;7.28;;
72920;SDS011;61064;51.654;5.476;2024-02-04T02:48:53;22.70;;;6.93;;
72920;SDS011;61064;51.654;5.476;2024-02-04T02:51:19;22.38;;;7.35;;
72920;SDS011;61064;51.654;5.476;2024-02-04T02:53:44;25.30;;;7.23;;
72920;SDS011;61064;51.654;5.476;2024-02-04T02:56:10;19.87;;;6.73;;
72920;SDS011;61064;51.654;5.476;2024-02-04T02:58:35;20.80;;;6.95;;
72920;SDS011;61064;51.654;5.476;2024-02-04T03:01:01;25.80;;;8.10;;
72920;SDS011;61064;51.654;5.476;2024-02-04T03:03:26;19.10;;;7.00;;
72920;SDS011;61064;51.654;5.476;2024-02-04T03:05:52;20.50;;;6.53;;
72920;SDS011;61064;51.654;5.476;2024-02-04T03:08:17;19.03;;;6.90;;
72920;SDS011;61064;51.654;5.476;2024-02-04T03:10:43;25.07;;;6.73;;
72920;SDS011;61064;51.654;5.476;2024-02-04T03:13:08;21.17;;;6.23;;
72920;SDS011;61064;51.654;5.476;2024-02-04T03:15:33;18.10;;;6.30;;
72920;SDS011;61064;51.654;5.476;2024-02-04T03:17:59;19.23;;;5.73;;
72920;SDS011;61064;51.654;5.476;2024-02-04T03:20:24;18.87;;;5.93;;
72920;SDS011;61064;51.654;5.476;2024-02-04T03:22:49;17.75;;;6.10;;
72920;SDS011;61064;51.654;5.476;2024-02-04T03:25:15;21.60;;;7.20;;
72920;SDS011;61064;51.654;5.476;2024-02-04T03:27:40;16.67;;;6.23;;
72920;SDS011;61064;51.654;5.476;2024-02-04T03:30:06;16.60;;;5.53;;
72920;SDS011;61064;51.654;5.476;2024-02-04T03:32:31;18.17;;;5.78;;
72920;SDS011;61064;51.654;5.476;2024-02-04T03:34:59;19.45;;;5.50;;
72920;SDS011;61064;51.654;5.476;2024-02-04T03:37:29;19.23;;;5.43;;
72920;SDS011;61064;51.654;5.476;2024-02-04T03:39:54;16.83;;;5.10;;
72920;SDS011;61064;51.654;5.476;2024-02-04T03:42:20;17.40;;;5.37;;
72920;SDS011;61064;51.654;5.476;2024-02-04T03:44:47;18.63;;;5.32;;
72920;SDS011;61064;51.654;5.476;2024-02-04T03:47:12;18.50;;;5.50;;
72920;SDS011;61064;51.654;5.476;2024-02-04T03:49:40;13.20;;;4.65;;
72920;SDS011;61064;51.654;5.476;2024-02-04T03:52:06;18.40;;;5.15;;
72920;SDS011;61064;51.654;5.476;2024-02-04T03:54:31;18.07;;;4.97;;
72920;SDS011;61064;51.654;5.476;2024-02-04T03:56:56;15.10;;;4.80;;
72920;SDS011;61064;51.654;5.476;2024-02-04T03:59:22;16.37;;;5.43;;
72920;SDS011;61064;51.654;5.476;2024-02-04T04:01:50;18.43;;;4.77;;
72920;SDS011;61064;51.654;5.476;2024-02-04T04:04:18;18.83;;;6.30;;
72920;SDS011;61064;51.654;5.476;2024-02-04T04:06:45;17.33;;;5.47;;
72920;SDS011;61064;51.654;5.476;2024-02-04T04:09:11;19.10;;;5.55;;
72920;SDS011;61064;51.654;5.476;2024-02-04T04:11:36;19.73;;;5.87;;
72920;SDS011;61064;51.654;5.476;2024-02-04T04:14:04;19.47;;;5.90;;
72920;SDS011;61064;51.654;5.476;2024-02-04T04:16:30;20.17;;;5.45;;
72920;SDS011;61064;51.654;5.476;2024-02-04T04:18:55;17.23;;;5.83;;
72920;SDS011;61064;51.654;5.476;2024-02-04T04:21:23;21.05;;;5.70;;
72920;SDS011;61064;51.654;5.476;2024-02-04T04:23:49;24.17;;;5.93;;
72920;SDS011;61064;51.654;5.476;2024-02-04T04:26:14;17.23;;;5.43;;
72920;SDS011;61064;51.654;5.476;2024-02-04T04:28:40;18.53;;;5.50;;
72920;SDS011;61064;51.654;5.476;2024-02-04T04:31:05;19.53;;;5.90;;
72920;SDS011;61064;51.654;5.476;2024-02-04T04:33:31;19.50;;;6.45;;
72920;SDS011;61064;51.654;5.476;2024-02-04T04:35:56;21.50;;;6.50;;
72920;SDS011;61064;51.654;5.476;2024-02-04T04:38:22;20.13;;;6.80;;
72920;SDS011;61064;51.654;5.476;2024-02-04T04:40:51;18.40;;;6.63;;
72920;SDS011;61064;51.654;5.476;2024-02-04T04:43:16;23.50;;;6.90;;
72920;SDS011;61064;51.654;5.476;2024-02-04T04:45:41;22.37;;;6.97;;
72920;SDS011;61064;51.654;5.476;2024-02-04T04:48:07;21.35;;;7.50;;
72920;SDS011;61064;51.654;5.476;2024-02-04T04:50:35;20.13;;;7.40;;
72920;SDS011;61064;51.654;5.476;2024-02-04T04:53:01;22.60;;;7.13;;
72920;SDS011;61064;51.654;5.476;2024-02-04T04:55:26;23.57;;;8.20;;
72920;SDS011;61064;51.654;5.476;2024-02-04T04:57:52;23.45;;;8.00;;
72920;SDS011;61064;51.654;5.476;2024-02-04T05:00:17;23.53;;;8.17;;
72920;SDS011;61064;51.654;5.476;2024-02-04T05:02:43;24.70;;;8.40;;
72920;SDS011;61064;51.654;5.476;2024-02-04T05:05:12;22.73;;;8.17;;
72920;SDS011;61064;51.654;5.476;2024-02-04T05:07:38;24.30;;;8.02;;
72920;SDS011;61064;51.654;5.476;2024-02-04T05:10:04;20.88;;;8.30;;
72920;SDS011;61064;51.654;5.476;2024-02-04T05:12:30;25.47;;;7.87;;
72920;SDS011;61064;51.654;5.476;2024-02-04T05:14:57;21.90;;;9.13;;
72920;SDS011;61064;51.654;5.476;2024-02-04T05:17:22;20.23;;;8.13;;
72920;SDS011;61064;51.654;5.476;2024-02-04T05:19:50;23.20;;;8.15;;
72920;SDS011;61064;51.654;5.476;2024-02-04T05:22:16;22.57;;;7.77;;
72920;SDS011;61064;51.654;5.476;2024-02-04T05:24:41;23.20;;;7.53;;
72920;SDS011;61064;51.654;5.476;2024-02-04T05:27:07;17.73;;;7.32;;
72920;SDS011;61064;51.654;5.476;2024-02-04T05:29:32;16.73;;;7.40;;
72920;SDS011;61064;51.654;5.476;2024-02-04T05:31:58;19.77;;;6.93;;
72920;SDS011;61064;51.654;5.476;2024-02-04T05:34:23;18.17;;;6.70;;
72920;SDS011;61064;51.654;5.476;2024-02-04T05:36:49;16.67;;;6.87;;
72920;SDS011;61064;51.654;5.476;2024-02-04T05:39:14;18.73;;;6.23;;
72920;SDS011;61064;51.654;5.476;2024-02-04T05:41:41;17.27;;;5.63;;
72920;SDS011;61064;51.654;5.476;2024-02-04T05:44:07;15.50;;;5.85;;
72920;SDS011;61064;51.654;5.476;2024-02-04T05:46:37;16.52;;;5.28;;
72920;SDS011;61064;51.654;5.476;2024-02-04T05:49:03;15.93;;;6.17;;
72920;SDS011;61064;51.654;5.476;2024-02-04T05:51:30;16.60;;;5.70;;
72920;SDS011;61064;51.654;5.476;2024-02-04T05:53:56;20.65;;;6.63;;
72920;SDS011;61064;51.654;5.476;2024-02-04T05:56:22;13.60;;;5.33;;
72920;SDS011;61064;51.654;5.476;2024-02-04T05:58:47;14.50;;;5.00;;
72920;SDS011;61064;51.654;5.476;2024-02-04T06:01:12;12.37;;;5.20;;
72920;SDS011;61064;51.654;5.476;2024-02-04T06:03:38;13.68;;;4.93;;
72920;SDS011;61064;51.654;5.476;2024-02-04T06:06:03;14.17;;;4.53;;
72920;SDS011;61064;51.654;5.476;2024-02-04T06:08:29;14.33;;;5.30;;
72920;SDS011;61064;51.654;5.476;2024-02-04T06:10:54;15.60;;;5.63;;
72920;SDS011;61064;51.654;5.476;2024-02-04T06:13:20;16.33;;;4.80;;
72920;SDS011;61064;51.654;5.476;2024-02-04T06:15:45;14.30;;;5.20;;
72920;SDS011;61064;51.654;5.476;2024-02-04T06:18:11;13.83;;;5.23;;
72920;SDS011;61064;51.654;5.476;2024-02-04T06:20:36;11.13;;;5.40;;
72920;SDS011;61064;51.654;5.476;2024-02-04T06:23:02;15.77;;;5.45;;
72920;SDS011;61064;51.654;5.476;2024-02-04T06:25:30;15.40;;;5.57;;
72920;SDS011;61064;51.654;5.476;2024-02-04T06:27:55;12.52;;;5.35;;
72920;SDS011;61064;51.654;5.476;2024-02-04T06:30:21;14.33;;;5.83;;
72920;SDS011;61064;51.654;5.476;2024-02-04T06:32:49;13.87;;;5.20;;
72920;SDS011;61064;51.654;5.476;2024-02-04T06:35:15;12.95;;;5.32;;
72920;SDS011;61064;51.654;5.476;2024-02-04T06:37:41;11.73;;;5.25;;
72920;SDS011;61064;51.654;5.476;2024-02-04T06:40:08;13.30;;;5.30;;
72920;SDS011;61064;51.654;5.476;2024-02-04T06:42:35;11.75;;;5.32;;
72920;SDS011;61064;51.654;5.476;2024-02-04T06:45:00;12.37;;;5.10;;
72920;SDS011;61064;51.654;5.476;2024-02-04T06:47:26;15.95;;;5.63;;
72920;SDS011;61064;51.654;5.476;2024-02-04T06:49:51;11.23;;;5.27;;
72920;SDS011;61064;51.654;5.476;2024-02-04T06:52:17;12.07;;;4.60;;
72920;SDS011;61064;51.654;5.476;2024-02-04T06:54:42;13.93;;;4.70;;
72920;SDS011;61064;51.654;5.476;2024-02-04T06:57:07;11.60;;;4.90;;
72920;SDS011;61064;51.654;5.476;2024-02-04T06:59:36;10.50;;;4.40;;
72920;SDS011;61064;51.654;5.476;2024-02-04T07:02:01;12.00;;;4.70;;
72920;SDS011;61064;51.654;5.476;2024-02-04T07:04:27;11.68;;;4.50;;
72920;SDS011;61064;51.654;5.476;2024-02-04T07:06:52;11.30;;;4.00;;
72920;SDS011;61064;51.654;5.476;2024-02-04T07:09:18;13.17;;;4.97;;
72920;SDS011;61064;51.654;5.476;2024-02-04T07:11:43;12.93;;;4.70;;
72920;SDS011;61064;51.654;5.476;2024-02-04T07:14:09;12.83;;;4.37;;
72920;SDS011;61064;51.654;5.476;2024-02-04T07:16:34;13.10;;;4.60;;
72920;SDS011;61064;51.654;5.476;2024-02-04T07:18:59;11.97;;;4.37;;
72920;SDS011;61064;51.654;5.476;2024-02-04T07:21:25;12.95;;;4.60;;
72920;SDS011;61064;51.654;5.476;2024-02-04T07:23:51;13.07;;;5.00;;
72920;SDS011;61064;51.654;5.476;2024-02-04T07:26:16;11.33;;;4.93;;
72920;SDS011;61064;51.654;5.476;2024-02-04T07:28:41;13.63;;;5.40;;
72920;SDS011;61064;51.654;5.476;2024-02-04T07:31:07;11.70;;;5.40;;
72920;SDS011;61064;51.654;5.476;2024-02-04T07:33:33;14.40;;;5.15;;
72920;SDS011;61064;51.654;5.476;2024-02-04T07:35:58;13.03;;;5.30;;
72920;SDS011;61064;51.654;5.476;2024-02-04T07:38:23;15.63;;;5.80;;
72920;SDS011;61064;51.654;5.476;2024-02-04T07:40:49;13.85;;;5.70;;
72920;SDS011;61064;51.654;5.476;2024-02-04T07:43:14;12.77;;;5.07;;
72920;SDS011;61064;51.654;5.476;2024-02-04T07:45:40;15.13;;;5.73;;
72920;SDS011;61064;51.654;5.476;2024-02-04T07:48:05;10.20;;;5.20;;
72920;SDS011;61064;51.654;5.476;2024-02-04T07:50:31;11.63;;;5.38;;
72920;SDS011;61064;51.654;5.476;2024-02-04T07:52:57;13.30;;;5.30;;
72920;SDS011;61064;51.654;5.476;2024-02-04T07:55:22;10.60;;;4.80;;
72920;SDS011;61064;51.654;5.476;2024-02-04T07:57:48;11.23;;;4.80;;
72920;SDS011;61064;51.654;5.476;2024-02-04T08:00:13;12.30;;;5.13;;
72920;SDS011;61064;51.654;5.476;2024-02-04T08:02:39;13.33;;;5.17;;
72920;SDS011;61064;51.654;5.476;2024-02-04T08:05:04;11.68;;;4.50;;
72920;SDS011;61064;51.654;5.476;2024-02-04T08:07:30;10.32;;;5.20;;
72920;SDS011;61064;51.654;5.476;2024-02-04T08:09:56;13.97;;;5.17;;
72920;SDS011;61064;51.654;5.476;2024-02-04T08:12:22;11.30;;;4.57;;
72920;SDS011;61064;51.654;5.476;2024-02-04T08:14:53;10.27;;;4.57;;
72920;SDS011;61064;51.654;5.476;2024-02-04T08:17:19;10.85;;;3.90;;
72920;SDS011;61064;51.654;5.476;2024-02-04T08:19:45;10.55;;;4.20;;
72920;SDS011;61064;51.654;5.476;2024-02-04T08:22:10;11.80;;;4.10;;
72920;SDS011;61064;51.654;5.476;2024-02-04T08:24:35;9.03;;;3.60;;
72920;SDS011;61064;51.654;5.476;2024-02-04T08:27:01;11.52;;;4.40;;
72920;SDS011;61064;51.654;5.476;2024-02-04T08:29:33;11.30;;;4.13;;
72920;SDS011;61064;51.654;5.476;2024-02-04T08:32:00;9.82;;;4.00;;
72920;SDS011;61064;51.654;5.476;2024-02-04T08:34:28;8.57;;;3.63;;
72920;SDS011;61064;51.654;5.476;2024-02-04T08:36:55;9.93;;;3.85;;
72920;SDS011;61064;51.654;5.476;2024-02-04T08:39:21;12.70;;;3.78;;
72920;SDS011;61064;51.654;5.476;2024-02-04T08:41:47;10.77;;;3.92;;
72920;SDS011;61064;51.654;5.476;2024-02-04T08:44:13;12.97;;;3.87;;
72920;SDS011;61064;51.654;5.476;2024-02-04T08:46:44;10.73;;;4.20;;
72920;SDS011;61064;51.654;5.476;2024-02-04T08:49:09;8.30;;;3.60;;
72920;SDS011;61064;51.654;5.476;2024-02-04T08:51:35;12.17;;;4.20;;
72920;SDS011;61064;51.654;5.476;2024-02-04T08:54:00;9.13;;;3.80;;
72920;SDS011;61064;51.654;5.476;2024-02-04T08:56:28;9.53;;;4.10;;
72920;SDS011;61064;51.654;5.476;2024-02-04T08:58:54;8.80;;;3.90;;
72920;SDS011;61064;51.654;5.476;2024-02-04T09:01:21;9.55;;;3.60;;
72920;SDS011;61064;51.654;5.476;2024-02-04T09:03:47;10.68;;;3.58;;
72920;SDS011;61064;51.654;5.476;2024-02-04T09:06:13;10.97;;;3.40;;
72920;SDS011;61064;51.654;5.476;2024-02-04T09:08:44;8.23;;;3.47;;
72920;SDS011;61064;51.654;5.476;2024-02-04T09:11:10;8.70;;;3.20;;
72920;SDS011;61064;51.654;5.476;2024-02-04T09:13:35;9.87;;;3.30;;
72920;SDS011;61064;51.654;5.476;2024-02-04T09:16:01;8.33;;;3.03;;
72920;SDS011;61064;51.654;5.476;2024-02-04T09:18:26;9.37;;;2.70;;
72920;SDS011;61064;51.654;5.476;2024-02-04T09:20:52;7.40;;;2.42;;
72920;SDS011;61064;51.654;5.476;2024-02-04T09:23:18;7.37;;;2.80;;
72920;SDS011;61064;51.654;5.476;2024-02-04T09:25:46;8.63;;;2.50;;
72920;SDS011;61064;51.654;5.476;2024-02-04T09:28:11;8.17;;;2.60;;
72920;SDS011;61064;51.654;5.476;2024-02-04T09:30:37;7.95;;;2.67;;
72920;SDS011;61064;51.654;5.476;2024-02-04T09:33:02;8.97;;;2.60;;
72920;SDS011;61064;51.654;5.476;2024-02-04T09:35:28;8.45;;;2.90;;
72920;SDS011;61064;51.654;5.476;2024-02-04T09:37:54;6.97;;;2.37;;
72920;SDS011;61064;51.654;5.476;2024-02-04T09:40:19;10.17;;;2.50;;
72920;SDS011;61064;51.654;5.476;2024-02-04T09:42:45;6.10;;;2.10;;
72920;SDS011;61064;51.654;5.476;2024-02-04T09:45:13;8.68;;;2.15;;
72920;SDS011;61064;51.654;5.476;2024-02-04T09:47:40;8.63;;;2.22;;
72920;SDS011;61064;51.654;5.476;2024-02-04T09:50:09;5.82;;;1.42;;
72920;SDS011;61064;51.654;5.476;2024-02-04T09:52:39;5.60;;;1.50;;
72920;SDS011;61064;51.654;5.476;2024-02-04T09:55:08;7.47;;;1.50;;
72920;SDS011;61064;51.654;5.476;2024-02-04T09:57:35;6.75;;;1.55;;
72920;SDS011;61064;51.654;5.476;2024-02-04T10:00:02;7.37;;;1.87;;
72920;SDS011;61064;51.654;5.476;2024-02-04T10:02:29;7.60;;;2.47;;
72920;SDS011;61064;51.654;5.476;2024-02-04T10:05:01;6.53;;;2.05;;
72920;SDS011;61064;51.654;5.476;2024-02-04T10:07:29;7.63;;;1.80;;
72920;SDS011;61064;51.654;5.476;2024-02-04T10:09:55;7.57;;;1.90;;
72920;SDS011;61064;51.654;5.476;2024-02-04T10:12:21;10.37;;;2.70;;
72920;SDS011;61064;51.654;5.476;2024-02-04T10:14:46;8.47;;;3.33;;
72920;SDS011;61064;51.654;5.476;2024-02-04T10:17:14;9.57;;;3.30;;
72920;SDS011;61064;51.654;5.476;2024-02-04T10:19:40;8.07;;;3.10;;
72920;SDS011;61064;51.654;5.476;2024-02-04T10:22:06;8.17;;;2.70;;
72920;SDS011;61064;51.654;5.476;2024-02-04T10:24:31;8.20;;;2.80;;
72920;SDS011;61064;51.654;5.476;2024-02-04T10:26:57;9.57;;;2.93;;
72920;SDS011;61064;51.654;5.476;2024-02-04T10:29:23;8.83;;;3.30;;
72920;SDS011;61064;51.654;5.476;2024-02-04T10:31:52;7.43;;;3.30;;
72920;SDS011;61064;51.654;5.476;2024-02-04T10:34:21;9.52;;;3.35;;
72920;SDS011;61064;51.654;5.476;2024-02-04T10:36:47;9.15;;;3.80;;
72920;SDS011;61064;51.654;5.476;2024-02-04T10:39:12;9.90;;;4.27;;
72920;SDS011;61064;51.654;5.476;2024-02-04T10:41:39;11.30;;;4.20;;
72920;SDS011;61064;51.654;5.476;2024-02-04T10:44:13;9.27;;;4.55;;
72920;SDS011;61064;51.654;5.476;2024-02-04T10:46:41;11.20;;;4.75;;
72920;SDS011;61064;51.654;5.476;2024-02-04T10:49:12;10.30;;;4.30;;
72920;SDS011;61064;51.654;5.476;2024-02-04T10:51:39;11.82;;;4.80;;
72920;SDS011;61064;51.654;5.476;2024-02-04T10:54:09;11.70;;;4.77;;
72920;SDS011;61064;51.654;5.476;2024-02-04T10:56:42;9.60;;;4.82;;
72920;SDS011;61064;51.654;5.476;2024-02-04T10:59:10;10.73;;;5.25;;
72920;SDS011;61064;51.654;5.476;2024-02-04T11:01:39;9.75;;;4.78;;
72920;SDS011;61064;51.654;5.476;2024-02-04T11:04:06;12.93;;;4.72;;
72920;SDS011;61064;51.654;5.476;2024-02-04T11:06:35;12.60;;;5.50;;
72920;SDS011;61064;51.654;5.476;2024-02-04T11:09:04;11.90;;;5.32;;
72920;SDS011;61064;51.654;5.476;2024-02-04T11:11:31;12.55;;;4.82;;
72920;SDS011;61064;51.654;5.476;2024-02-04T11:13:59;11.95;;;4.78;;
72920;SDS011;61064;51.654;5.476;2024-02-04T11:27:02;10.87;;;4.90;;
72920;SDS011;61064;51.654;5.476;2024-02-04T11:29:28;9.60;;;5.15;;
72920;SDS011;61064;51.654;5.476;2024-02-04T11:31:53;12.80;;;5.03;;
72920;SDS011;61064;51.654;5.476;2024-02-04T11:34:19;13.73;;;5.10;;
72920;SDS011;61064;51.654;5.476;2024-02-04T11:36:45;12.38;;;4.88;;
72920;SDS011;61064;51.654;5.476;2024-02-04T11:39:14;13.87;;;5.13;;
72920;SDS011;61064;51.654;5.476;2024-02-04T11:41:46;12.65;;;4.97;;
72920;SDS011;61064;51.654;5.476;2024-02-04T11:44:19;9.38;;;4.85;;
72920;SDS011;61064;51.654;5.476;2024-02-04T11:46:48;13.23;;;5.22;;
72920;SDS011;61064;51.654;5.476;2024-02-04T11:49:14;11.15;;;4.70;;
72920;SDS011;61064;51.654;5.476;2024-02-04T11:51:44;12.93;;;4.43;;
72920;SDS011;61064;51.654;5.476;2024-02-04T11:54:16;9.85;;;4.47;;
72920;SDS011;61064;51.654;5.476;2024-02-04T11:56:46;9.88;;;4.03;;
72920;SDS011;61064;51.654;5.476;2024-02-04T11:59:18;8.45;;;3.75;;
72920;SDS011;61064;51.654;5.476;2024-02-04T12:01:46;9.48;;;4.03;;
72920;SDS011;61064;51.654;5.476;2024-02-04T12:04:13;9.53;;;3.80;;
72920;SDS011;61064;51.654;5.476;2024-02-04T12:06:41;9.70;;;3.70;;
72920;SDS011;61064;51.654;5.476;2024-02-04T12:09:08;11.43;;;3.50;;
72920;SDS011;61064;51.654;5.476;2024-02-04T12:11:37;11.73;;;4.15;;
72920;SDS011;61064;51.654;5.476;2024-02-04T12:14:04;8.75;;;3.60;;
72920;SDS011;61064;51.654;5.476;2024-02-04T12:16:32;8.30;;;3.60;;
72920;SDS011;61064;51.654;5.476;2024-02-04T12:18:58;9.73;;;3.70;;
72920;SDS011;61064;51.654;5.476;2024-02-04T12:21:25;9.70;;;3.27;;
72920;SDS011;61064;51.654;5.476;2024-02-04T12:23:50;8.63;;;3.77;;
72920;SDS011;61064;51.654;5.476;2024-02-04T12:26:16;8.15;;;3.10;;
72920;SDS011;61064;51.654;5.476;2024-02-04T12:28:42;11.43;;;2.87;;
72920;SDS011;61064;51.654;5.476;2024-02-04T12:31:07;9.02;;;2.45;;
72920;SDS011;61064;51.654;5.476;2024-02-04T12:33:40;8.68;;;2.30;;
72920;SDS011;61064;51.654;5.476;2024-02-04T12:36:14;6.13;;;2.10;;
72920;SDS011;61064;51.654;5.476;2024-02-04T12:38:39;7.35;;;2.00;;
72920;SDS011;61064;51.654;5.476;2024-02-04T12:41:05;5.77;;;1.60;;
72920;SDS011;61064;51.654;5.476;2024-02-04T12:43:30;6.10;;;1.40;;
72920;SDS011;61064;51.654;5.476;2024-02-04T12:45:59;6.45;;;1.50;;
72920;SDS011;61064;51.654;5.476;2024-02-04T12:48:24;8.23;;;1.90;;
72920;SDS011;61064;51.654;5.476;2024-02-04T12:50:52;10.23;;;2.08;;
72920;SDS011;61064;51.654;5.476;2024-02-04T12:53:19;4.93;;;1.40;;
72920;SDS011;61064;51.654;5.476;2024-02-04T12:55:44;9.50;;;1.35;;
72920;SDS011;61064;51.654;5.476;2024-02-04T12:58:10;7.63;;;1.70;;
72920;SDS011;61064;51.654;5.476;2024-02-04T13:00:39;7.70;;;1.75;;
72920;SDS011;61064;51.654;5.476;2024-02-04T13:03:06;5.68;;;1.10;;
72920;SDS011;61064;51.654;5.476;2024-02-04T13:05:36;4.67;;;0.83;;
72920;SDS011;61064;51.654;5.476;2024-02-04T13:08:05;5.40;;;0.90;;
72920;SDS011;61064;51.654;5.476;2024-02-04T13:10:32;3.35;;;0.95;;
72920;SDS011;61064;51.654;5.476;2024-02-04T13:12:59;4.57;;;0.77;;
72920;SDS011;61064;51.654;5.476;2024-02-04T13:15:26;4.72;;;0.80;;
72920;SDS011;61064;51.654;5.476;2024-02-04T13:17:52;5.68;;;0.82;;
72920;SDS011;61064;51.654;5.476;2024-02-04T13:20:18;6.27;;;0.90;;
72920;SDS011;61064;51.654;5.476;2024-02-04T13:22:43;4.07;;;0.70;;
72920;SDS011;61064;51.654;5.476;2024-02-04T13:25:09;5.20;;;0.60;;
72920;SDS011;61064;51.654;5.476;2024-02-04T13:27:35;5.07;;;0.60;;
72920;SDS011;61064;51.654;5.476;2024-02-04T13:30:00;6.47;;;0.80;;
72920;SDS011;61064;51.654;5.476;2024-02-04T13:32:26;6.03;;;0.80;;
72920;SDS011;61064;51.654;5.476;2024-02-04T13:34:51;5.77;;;0.90;;
72920;SDS011;61064;51.654;5.476;2024-02-04T13:37:18;4.30;;;0.70;;
72920;SDS011;61064;51.654;5.476;2024-02-04T13:39:44;5.67;;;0.90;;
72920;SDS011;61064;51.654;5.476;2024-02-04T13:42:10;7.40;;;0.95;;
72920;SDS011;61064;51.654;5.476;2024-02-04T13:44:35;4.10;;;0.80;;
72920;SDS011;61064;51.654;5.476;2024-02-04T13:47:01;5.40;;;0.90;;
72920;SDS011;61064;51.654;5.476;2024-02-04T13:49:26;4.70;;;1.00;;
72920;SDS011;61064;51.654;5.476;2024-02-04T13:51:52;6.07;;;0.90;;
72920;SDS011;61064;51.654;5.476;2024-02-04T13:54:18;5.00;;;0.90;;
72920;SDS011;61064;51.654;5.476;2024-02-04T13:56:46;5.22;;;1.00;;
72920;SDS011;61064;51.654;5.476;2024-02-04T13:59:12;6.55;;;1.13;;
72920;SDS011;61064;51.654;5.476;2024-02-04T14:01:39;5.53;;;0.90;;
72920;SDS011;61064;51.654;5.476;2024-02-04T14:04:04;5.87;;;0.97;;
72920;SDS011;61064;51.654;5.476;2024-02-04T14:06:30;6.63;;;0.90;;
72920;SDS011;61064;51.654;5.476;2024-02-04T14:08:55;5.40;;;0.80;;
72920;SDS011;61064;51.654;5.476;2024-02-04T14:11:21;5.40;;;0.70;;
72920;SDS011;61064;51.654;5.476;2024-02-04T14:13:46;5.27;;;0.67;;
72920;SDS011;61064;51.654;5.476;2024-02-04T14:16:14;6.53;;;1.02;;
72920;SDS011;61064;51.654;5.476;2024-02-04T14:18:40;5.90;;;0.83;;
72920;SDS011;61064;51.654;5.476;2024-02-04T14:21:05;4.75;;;0.65;;
72920;SDS011;61064;51.654;5.476;2024-02-04T14:23:32;5.78;;;1.05;;
72920;SDS011;61064;51.654;5.476;2024-02-04T14:25:57;5.20;;;0.83;;
72920;SDS011;61064;51.654;5.476;2024-02-04T14:28:22;4.47;;;0.70;;
72920;SDS011;61064;51.654;5.476;2024-02-04T14:30:48;4.88;;;0.70;;
72920;SDS011;61064;51.654;5.476;2024-02-04T14:33:14;3.77;;;0.70;;
72920;SDS011;61064;51.654;5.476;2024-02-04T14:35:39;4.30;;;0.80;;
72920;SDS011;61064;51.654;5.476;2024-02-04T14:38:05;5.03;;;0.90;;
72920;SDS011;61064;51.654;5.476;2024-02-04T14:40:30;6.78;;;1.23;;
72920;SDS011;61064;51.654;5.476;2024-02-04T14:42:59;5.27;;;0.80;;
72920;SDS011;61064;51.654;5.476;2024-02-04T14:45:25;4.20;;;1.00;;